createdAt,value
2022-07-30T00:01:35.748Z,14.60
2022-07-30T00:04:03.755Z,14.70
2022-07-30T00:06:30.953Z,14.70
2022-07-30T00:08:58.803Z,14.70
2022-07-30T00:11:27.985Z,14.70
2022-07-30T00:13:55.531Z,14.70
2022-07-30T00:16:22.795Z,14.70
2022-07-30T00:18:50.008Z,14.70
2022-07-30T00:21:20.113Z,14.70
2022-07-30T00:24:02.489Z,14.60
2022-07-30T00:26:29.819Z,14.60
2022-07-30T00:28:56.842Z,14.50
2022-07-30T00:31:23.815Z,14.50
2022-07-30T00:33:50.765Z,14.50
2022-07-30T00:36:17.772Z,14.50
2022-07-30T00:38:44.678Z,14.50
2022-07-30T00:41:12.097Z,14.50
2022-07-30T00:43:39.709Z,14.50
2022-07-30T00:46:06.784Z,14.50
2022-07-30T00:48:34.021Z,14.50
2022-07-30T00:51:00.953Z,14.60
2022-07-30T00:53:28.172Z,14.60
2022-07-30T00:55:55.282Z,14.60
2022-07-30T00:58:22.424Z,14.60
2022-07-30T01:00:49.502Z,14.60
2022-07-30T01:03:16.638Z,14.60
2022-07-30T01:05:43.581Z,14.60
2022-07-30T01:08:10.662Z,14.70
2022-07-30T01:10:37.640Z,14.70
2022-07-30T01:13:05.681Z,14.70
2022-07-30T01:15:32.988Z,14.80
2022-07-30T01:18:03.870Z,14.80
2022-07-30T01:20:38.441Z,14.80
2022-07-30T01:23:13.539Z,14.80
2022-07-30T01:26:14.672Z,14.80
2022-07-30T01:28:45.512Z,14.80
2022-07-30T01:31:14.339Z,14.80
2022-07-30T01:33:45.052Z,14.70
2022-07-30T01:36:14.774Z,14.70
2022-07-30T01:38:46.296Z,14.70
2022-07-30T01:41:14.945Z,14.70
2022-07-30T01:43:44.342Z,14.70
2022-07-30T01:46:12.191Z,14.80
2022-07-30T01:48:41.285Z,14.70
2022-07-30T01:51:11.870Z,14.70
2022-07-30T01:53:41.769Z,14.70
2022-07-30T01:56:11.836Z,14.60
2022-07-30T01:58:41.604Z,14.60
2022-07-30T02:01:08.692Z,14.60
2022-07-30T02:03:35.995Z,14.60
2022-07-30T02:06:13.110Z,14.60
2022-07-30T02:08:59.454Z,14.60
2022-07-30T02:11:44.788Z,14.50
2022-07-30T02:14:30.950Z,14.50
2022-07-30T02:16:59.315Z,14.50
2022-07-30T02:19:41.924Z,14.40
2022-07-30T02:22:13.029Z,14.50
2022-07-30T02:24:44.239Z,14.40
2022-07-30T02:27:16.863Z,14.40
2022-07-30T02:29:46.203Z,14.40
2022-07-30T02:32:17.778Z,14.40
2022-07-30T02:34:47.428Z,14.40
2022-07-30T02:37:16.344Z,14.40
2022-07-30T02:39:44.395Z,14.40
2022-07-30T02:42:15.058Z,14.40
2022-07-30T02:44:45.656Z,14.30
2022-07-30T02:47:16.937Z,14.40
2022-07-30T02:49:46.783Z,14.30
2022-07-30T02:52:16.307Z,14.30
2022-07-30T02:54:44.588Z,14.30
2022-07-30T02:57:12.893Z,14.20
2022-07-30T02:59:41.627Z,14.20
2022-07-30T03:02:11.913Z,14.20
2022-07-30T03:04:42.629Z,14.10
2022-07-30T03:07:11.168Z,14.10
2022-07-30T03:09:51.342Z,14.10
2022-07-30T03:12:20.011Z,14.10
2022-07-30T03:14:47.108Z,14.10
2022-07-30T03:17:17.236Z,14.10
2022-07-30T03:19:45.738Z,14.00
2022-07-30T03:22:14.805Z,14.00
2022-07-30T03:24:44.348Z,14.00
2022-07-30T03:27:11.833Z,14.00
2022-07-30T03:29:40.195Z,14.00
2022-07-30T03:32:07.345Z,13.90
2022-07-30T03:34:35.067Z,13.90
2022-07-30T03:37:05.512Z,13.90
2022-07-30T03:39:36.474Z,13.90
2022-07-30T03:42:08.043Z,13.90
2022-07-30T03:44:35.353Z,13.90
2022-07-30T03:47:05.571Z,13.90
2022-07-30T03:49:34.390Z,13.90
2022-07-30T03:52:02.680Z,13.90
2022-07-30T03:54:33.224Z,13.80
2022-07-30T03:57:04.988Z,13.80
2022-07-30T03:59:31.962Z,13.80
2022-07-30T04:02:06.887Z,13.80
2022-07-30T04:04:34.530Z,13.80
2022-07-30T04:07:01.900Z,13.80
2022-07-30T04:09:29.117Z,13.80
2022-07-30T04:11:56.066Z,13.80
2022-07-30T04:14:22.999Z,13.80
2022-07-30T04:17:25.971Z,13.80
2022-07-30T04:19:58.600Z,13.80
2022-07-30T04:22:30.470Z,13.80
2022-07-30T04:24:59.272Z,13.80
2022-07-30T04:27:27.193Z,13.80
2022-07-30T04:29:55.058Z,13.80
2022-07-30T04:32:22.712Z,13.80
2022-07-30T04:34:51.516Z,13.80
2022-07-30T04:37:20.808Z,13.80
2022-07-30T04:39:51.396Z,13.80
2022-07-30T04:42:18.419Z,13.80
2022-07-30T04:44:45.403Z,13.80
2022-07-30T04:47:12.772Z,13.80
2022-07-30T04:49:42.289Z,13.80
2022-07-30T04:52:10.793Z,13.80
2022-07-30T04:54:59.329Z,13.80
2022-07-30T04:57:28.590Z,13.80
2022-07-30T04:59:55.615Z,13.80
2022-07-30T05:02:24.664Z,13.80
2022-07-30T05:04:52.678Z,13.80
2022-07-30T05:07:22.301Z,13.80
2022-07-30T05:09:49.650Z,13.80
2022-07-30T05:12:16.710Z,13.80
2022-07-30T05:14:48.135Z,13.80
2022-07-30T05:17:15.326Z,13.80
2022-07-30T05:19:42.298Z,13.80
2022-07-30T05:22:09.833Z,13.90
2022-07-30T05:24:36.787Z,13.90
2022-07-30T05:27:03.994Z,13.90
2022-07-30T05:29:31.107Z,13.80
2022-07-30T05:32:02.688Z,13.90
2022-07-30T05:34:30.820Z,13.90
2022-07-30T05:36:58.333Z,13.80
2022-07-30T05:39:25.560Z,13.90
2022-07-30T05:41:52.555Z,13.90
2022-07-30T05:44:22.269Z,13.90
2022-07-30T05:46:51.954Z,13.90
2022-07-30T05:49:19.271Z,13.90
2022-07-30T05:51:46.340Z,13.90
2022-07-30T05:54:13.270Z,13.90
2022-07-30T05:56:41.360Z,13.90
2022-07-30T05:59:08.335Z,13.90
2022-07-30T06:01:35.305Z,13.90
2022-07-30T06:04:02.491Z,13.90
2022-07-30T06:06:29.544Z,14.00
2022-07-30T06:08:56.481Z,14.00
2022-07-30T06:11:23.537Z,14.00
2022-07-30T06:13:50.489Z,14.00
2022-07-30T06:16:17.533Z,14.10
2022-07-30T06:18:44.540Z,14.10
2022-07-30T06:21:11.721Z,14.10
2022-07-30T06:23:38.749Z,14.20
2022-07-30T06:26:05.777Z,14.20
2022-07-30T06:28:38.040Z,14.20
2022-07-30T06:31:06.815Z,14.20
2022-07-30T06:33:33.881Z,14.20
2022-07-30T06:36:00.927Z,14.20
2022-07-30T06:38:28.595Z,14.20
2022-07-30T06:41:00.539Z,14.20
2022-07-30T06:43:29.761Z,14.30
2022-07-30T06:45:56.777Z,14.30
2022-07-30T06:48:23.963Z,14.40
2022-07-30T06:50:50.929Z,14.50
2022-07-30T06:53:18.254Z,14.50
2022-07-30T06:55:45.192Z,14.50
2022-07-30T06:58:12.178Z,14.60
2022-07-30T07:00:39.111Z,14.60
2022-07-30T07:03:11.283Z,14.70
2022-07-30T07:05:38.676Z,14.60
2022-07-30T07:08:05.917Z,14.70
2022-07-30T07:10:33.074Z,14.70
2022-07-30T07:13:00.799Z,14.70
2022-07-30T07:15:36.192Z,14.70
2022-07-30T07:18:06.535Z,14.70
2022-07-30T07:20:34.551Z,14.80
2022-07-30T07:23:06.622Z,14.90
2022-07-30T07:25:36.709Z,15.00
2022-07-30T07:28:11.873Z,15.30
2022-07-30T07:30:44.440Z,15.60
2022-07-30T07:33:12.651Z,15.50
2022-07-30T07:35:48.769Z,15.50
2022-07-30T07:38:18.202Z,15.40
2022-07-30T07:40:45.739Z,15.40
2022-07-30T07:43:15.383Z,15.50
2022-07-30T07:45:43.408Z,15.70
2022-07-30T07:48:10.426Z,15.80
2022-07-30T07:50:37.516Z,15.90
2022-07-30T07:53:05.610Z,15.90
2022-07-30T07:55:33.587Z,15.80
2022-07-30T07:58:01.018Z,15.80
2022-07-30T08:00:29.405Z,15.90
2022-07-30T08:02:56.529Z,15.90
2022-07-30T08:05:24.291Z,15.90
2022-07-30T08:07:52.165Z,15.90
2022-07-30T08:10:19.179Z,15.90
2022-07-30T08:12:46.255Z,15.90
2022-07-30T08:15:13.627Z,15.90
2022-07-30T08:17:44.955Z,15.90
2022-07-30T08:20:14.111Z,15.90
2022-07-30T08:22:41.446Z,15.90
2022-07-30T08:25:09.241Z,16.00
2022-07-30T08:27:36.357Z,16.10
2022-07-30T08:30:08.305Z,16.10
2022-07-30T08:32:36.547Z,16.20
2022-07-30T08:35:04.897Z,16.30
2022-07-30T08:37:32.267Z,16.40
2022-07-30T08:39:59.203Z,16.40
2022-07-30T08:42:27.859Z,16.40
2022-07-30T08:44:56.423Z,16.40
2022-07-30T08:47:29.948Z,16.40
2022-07-30T08:50:01.690Z,16.40
2022-07-30T08:52:29.351Z,16.40
2022-07-30T08:54:58.542Z,16.50
2022-07-30T08:57:26.150Z,16.50
2022-07-30T09:00:00.479Z,16.50
2022-07-30T09:02:31.667Z,16.70
2022-07-30T09:04:59.445Z,16.80
2022-07-30T09:07:26.621Z,16.90
2022-07-30T09:09:53.596Z,17.00
2022-07-30T09:12:40.460Z,17.10
2022-07-30T09:15:20.908Z,17.20
2022-07-30T09:17:50.664Z,17.20
2022-07-30T09:20:18.846Z,17.30
2022-07-30T09:22:53.369Z,17.70
2022-07-30T09:25:38.848Z,18.20
2022-07-30T09:28:16.142Z,18.70
2022-07-30T09:30:55.117Z,19.00
2022-07-30T09:33:40.540Z,19.30
2022-07-30T09:36:13.075Z,19.80
2022-07-30T09:38:51.723Z,20.30
2022-07-30T09:41:41.521Z,20.60
2022-07-30T09:44:08.597Z,20.80
2022-07-30T09:46:47.663Z,20.90
2022-07-30T09:49:22.631Z,21.10
2022-07-30T09:51:55.604Z,21.40
2022-07-30T09:54:26.084Z,21.80
2022-07-30T10:00:01.815Z,22.50
2022-07-30T10:02:33.091Z,22.70
2022-07-30T10:05:14.188Z,22.90
2022-07-30T10:08:09.152Z,23.00
2022-07-30T10:10:36.682Z,22.90
2022-07-30T10:13:16.892Z,22.60
2022-07-30T10:15:46.791Z,22.50
2022-07-30T10:18:15.482Z,22.90
2022-07-30T10:20:44.788Z,23.00
2022-07-30T10:23:15.898Z,22.90
2022-07-30T10:25:49.617Z,22.50
2022-07-30T10:28:24.026Z,22.10
2022-07-30T10:30:53.686Z,21.90
2022-07-30T10:33:36.280Z,21.70
2022-07-30T10:36:10.457Z,21.50
2022-07-30T10:38:41.941Z,21.40
2022-07-30T10:41:42.202Z,21.30
2022-07-30T10:44:31.326Z,21.50
2022-07-30T10:47:09.260Z,22.10
2022-07-30T10:49:41.554Z,22.50
2022-07-30T10:52:10.802Z,23.00
2022-07-30T10:54:39.587Z,23.30
2022-07-30T10:57:15.228Z,23.30
2022-07-30T10:59:50.464Z,23.20
2022-07-30T11:02:19.785Z,22.90
2022-07-30T11:04:47.037Z,22.70
2022-07-30T11:07:24.086Z,22.70
2022-07-30T11:10:03.975Z,23.20
2022-07-30T11:12:41.878Z,23.90
2022-07-30T11:15:19.169Z,24.00
2022-07-30T11:18:11.412Z,24.00
2022-07-30T11:20:39.583Z,24.10
2022-07-30T11:23:20.345Z,24.00
2022-07-30T11:25:51.730Z,23.70
2022-07-30T11:28:37.715Z,23.20
2022-07-30T11:31:37.171Z,22.70
2022-07-30T11:34:18.949Z,22.40
2022-07-30T11:37:18.459Z,22.10
2022-07-30T11:39:55.675Z,22.00
2022-07-30T11:42:34.675Z,21.80
2022-07-30T11:45:31.337Z,21.80
2022-07-30T11:48:00.333Z,21.80
2022-07-30T11:50:30.817Z,21.80
2022-07-30T11:53:00.266Z,21.80
2022-07-30T11:55:33.399Z,21.90
2022-07-30T11:58:02.316Z,22.00
2022-07-30T12:00:38.206Z,22.00
2022-07-30T12:03:13.424Z,22.20
2022-07-30T12:05:40.534Z,22.40
2022-07-30T12:08:07.597Z,22.60
2022-07-30T12:10:39.516Z,22.50
2022-07-30T12:13:14.801Z,22.40
2022-07-30T12:15:46.666Z,22.30
2022-07-30T12:18:26.926Z,22.40
2022-07-30T12:20:59.866Z,22.40
2022-07-30T12:23:28.023Z,22.40
2022-07-30T12:25:55.510Z,22.40
2022-07-30T12:28:27.106Z,22.50
2022-07-30T12:30:54.941Z,22.60
2022-07-30T12:33:26.022Z,22.70
2022-07-30T12:35:55.802Z,22.60
2022-07-30T12:38:24.895Z,22.50
2022-07-30T12:41:05.478Z,22.20
2022-07-30T12:43:55.294Z,22.10
2022-07-30T12:46:25.367Z,21.90
2022-07-30T12:48:54.624Z,21.90
2022-07-30T12:51:27.276Z,21.90
2022-07-30T12:53:55.673Z,21.90
2022-07-30T12:56:27.852Z,21.90
2022-07-30T12:58:57.208Z,22.00
2022-07-30T13:01:47.239Z,21.90
2022-07-30T13:04:14.631Z,22.00
2022-07-30T13:06:42.602Z,22.10
2022-07-30T13:09:22.465Z,22.10
2022-07-30T13:11:51.327Z,22.10
2022-07-30T13:14:18.358Z,22.30
2022-07-30T13:16:45.746Z,22.70
2022-07-30T13:19:13.189Z,23.00
2022-07-30T13:21:49.422Z,23.10
2022-07-30T13:24:17.975Z,23.20
2022-07-30T13:26:45.503Z,23.20
2022-07-30T13:29:13.671Z,23.70
2022-07-30T13:31:42.644Z,23.80
2022-07-30T13:34:11.299Z,23.60
2022-07-30T13:36:38.333Z,23.60
2022-07-30T13:39:05.344Z,24.20
2022-07-30T13:41:33.330Z,24.70
2022-07-30T13:44:00.340Z,24.90
2022-07-30T13:46:27.401Z,24.70
2022-07-30T13:48:55.050Z,24.80
2022-07-30T13:51:22.228Z,25.30
2022-07-30T13:53:49.304Z,25.50
2022-07-30T13:56:16.886Z,25.50
2022-07-30T13:58:47.252Z,25.20
2022-07-30T14:01:17.419Z,24.90
2022-07-30T14:03:50.528Z,25.30
2022-07-30T14:06:18.734Z,25.60
2022-07-30T14:08:46.119Z,26.00
2022-07-30T14:11:13.179Z,26.50
2022-07-30T14:13:40.162Z,26.80
2022-07-30T14:16:22.570Z,26.90
2022-07-30T14:18:54.424Z,27.10
2022-07-30T14:21:21.429Z,27.20
2022-07-30T14:23:48.379Z,27.40
2022-07-30T14:26:15.447Z,27.80
2022-07-30T14:28:42.392Z,27.40
2022-07-30T14:31:09.325Z,26.90
2022-07-30T14:33:36.547Z,27.00
2022-07-30T14:36:03.674Z,26.80
2022-07-30T14:38:30.936Z,26.40
2022-07-30T14:40:57.912Z,26.40
2022-07-30T14:43:27.360Z,26.40
2022-07-30T14:45:54.366Z,25.90
2022-07-30T14:48:21.350Z,25.60
2022-07-30T14:51:12.058Z,25.90
2022-07-30T14:53:35.679Z,25.90
2022-07-30T14:56:02.816Z,25.60
2022-07-30T14:58:29.933Z,25.40
2022-07-30T15:00:56.951Z,25.40
2022-07-30T15:03:25.745Z,25.70
2022-07-30T15:05:52.994Z,25.70
2022-07-30T15:08:20.116Z,25.60
2022-07-30T15:10:47.234Z,25.60
2022-07-30T15:13:15.235Z,25.10
2022-07-30T15:15:43.922Z,25.00
2022-07-30T15:18:13.533Z,24.90
2022-07-30T15:20:40.657Z,24.70
2022-07-30T15:23:10.510Z,24.60
2022-07-30T15:25:41.228Z,24.50
2022-07-30T15:28:08.521Z,24.30
2022-07-30T15:30:35.569Z,24.10
2022-07-30T15:33:02.560Z,24.00
2022-07-30T15:35:29.517Z,23.80
2022-07-30T15:37:56.550Z,23.60
2022-07-30T15:40:23.634Z,23.40
2022-07-30T15:42:50.945Z,23.20
2022-07-30T15:45:18.721Z,23.20
2022-07-30T15:47:46.278Z,23.10
2022-07-30T15:50:13.773Z,23.00
2022-07-30T15:52:40.821Z,23.00
2022-07-30T15:55:09.770Z,23.00
2022-07-30T15:57:36.920Z,23.00
2022-07-30T16:00:07.542Z,23.10
2022-07-30T16:02:34.788Z,23.20
2022-07-30T16:05:02.075Z,23.20
2022-07-30T16:07:29.112Z,23.00
2022-07-30T16:09:56.180Z,22.90
2022-07-30T16:12:23.223Z,22.80
2022-07-30T16:14:50.707Z,22.60
2022-07-30T16:17:17.802Z,22.50
2022-07-30T16:19:45.290Z,22.40
2022-07-30T16:22:15.045Z,22.20
2022-07-30T16:24:49.240Z,22.20
2022-07-30T16:27:17.272Z,22.30
2022-07-30T16:29:44.643Z,22.20
2022-07-30T16:32:11.588Z,22.00
2022-07-30T16:34:38.551Z,21.90
2022-07-30T16:37:05.490Z,21.80
2022-07-30T16:39:32.455Z,21.70
2022-07-30T16:41:59.591Z,21.80
2022-07-30T16:44:32.065Z,21.80
2022-07-30T16:46:59.152Z,21.80
2022-07-30T16:49:26.425Z,21.80
2022-07-30T16:51:54.194Z,21.70
2022-07-30T16:54:21.503Z,21.50
2022-07-30T16:56:52.700Z,21.40
2022-07-30T16:59:20.570Z,21.40
2022-07-30T17:01:48.050Z,21.40
2022-07-30T17:04:15.521Z,21.50
2022-07-30T17:06:44.423Z,21.60
2022-07-30T17:09:15.692Z,21.70
2022-07-30T17:11:47.780Z,21.50
2022-07-30T17:14:19.692Z,21.40
2022-07-30T17:16:46.666Z,21.30
2022-07-30T17:19:13.648Z,21.20
2022-07-30T17:21:40.684Z,21.10
2022-07-30T17:24:11.905Z,21.00
2022-07-30T17:26:42.973Z,20.90
2022-07-30T17:29:15.009Z,20.80
2022-07-30T17:31:44.417Z,20.80
2022-07-30T17:34:14.347Z,20.70
2022-07-30T17:36:51.660Z,20.60
2022-07-30T17:40:18.841Z,20.50
2022-07-30T17:42:10.483Z,20.40
2022-07-30T17:44:38.096Z,20.40
2022-07-30T17:47:05.298Z,20.30
2022-07-30T17:49:32.305Z,20.20
2022-07-30T17:51:59.454Z,20.10
2022-07-30T17:54:26.727Z,20.00
2022-07-30T17:56:53.724Z,19.90
2022-07-30T17:59:20.778Z,19.80
2022-07-30T18:01:47.726Z,19.70
2022-07-30T18:04:14.683Z,19.60
2022-07-30T18:06:41.678Z,19.50
2022-07-30T18:09:08.633Z,19.40
2022-07-30T18:11:35.617Z,19.30
2022-07-30T18:14:02.570Z,19.30
2022-07-30T18:16:29.851Z,19.20
2022-07-30T18:18:56.833Z,19.10
2022-07-30T18:21:23.844Z,19.00
2022-07-30T18:23:50.841Z,19.00
2022-07-30T18:26:18.777Z,19.00
2022-07-30T18:28:47.480Z,18.90
2022-07-30T18:31:14.459Z,18.80
2022-07-30T18:33:41.507Z,18.80
2022-07-30T18:36:11.134Z,18.60
2022-07-30T18:38:38.796Z,18.60
2022-07-30T18:41:05.838Z,18.60
2022-07-30T18:43:47.695Z,18.50
2022-07-30T18:46:15.509Z,18.50
2022-07-30T18:48:42.594Z,18.50
2022-07-30T18:51:13.653Z,18.40
2022-07-30T18:53:42.053Z,18.40
2022-07-30T18:56:09.442Z,18.30
2022-07-30T18:58:38.390Z,18.40
2022-07-30T19:01:05.595Z,18.30
2022-07-30T19:03:32.721Z,18.30
2022-07-30T19:05:59.878Z,18.20
2022-07-30T19:08:27.690Z,18.20
2022-07-30T19:10:54.785Z,18.10
2022-07-30T19:13:23.630Z,18.10
2022-07-30T19:15:51.306Z,18.00
2022-07-30T19:18:18.381Z,17.90
2022-07-30T19:20:45.570Z,17.90
2022-07-30T19:23:13.747Z,17.80
2022-07-30T19:25:40.957Z,17.80
2022-07-30T19:28:08.059Z,17.70
2022-07-30T19:30:35.232Z,17.70
2022-07-30T19:33:15.217Z,17.60
2022-07-30T19:35:43.078Z,17.60
2022-07-30T19:38:14.242Z,17.50
2022-07-30T19:40:48.540Z,17.50
2022-07-30T19:43:16.356Z,17.40
2022-07-30T19:45:46.634Z,17.30
2022-07-30T19:48:28.574Z,17.20
2022-07-30T19:50:57.771Z,17.10
2022-07-30T19:53:26.260Z,17.00
2022-07-30T19:55:58.738Z,16.90
2022-07-30T19:58:26.211Z,16.70
2022-07-30T20:00:53.463Z,16.70
2022-07-30T20:03:25.697Z,16.60
2022-07-30T20:05:57.367Z,16.60
2022-07-30T20:08:26.831Z,16.50
2022-07-30T20:10:53.853Z,16.40
2022-07-30T20:13:44.164Z,16.30
2022-07-30T20:16:13.720Z,16.20
2022-07-30T20:18:42.179Z,16.20
2022-07-30T20:21:14.635Z,16.10
2022-07-30T20:23:43.622Z,16.10
2022-07-30T20:26:14.122Z,16.00
2022-07-30T20:28:42.724Z,16.00
2022-07-30T20:31:10.545Z,16.00
2022-07-30T20:33:38.045Z,16.00
2022-07-30T20:36:09.850Z,16.00
2022-07-30T20:38:39.025Z,16.00
2022-07-30T20:41:10.298Z,15.90
2022-07-30T20:43:46.107Z,15.90
2022-07-30T20:46:19.986Z,15.90
2022-07-30T20:48:47.135Z,15.90
2022-07-30T20:51:14.181Z,15.90
2022-07-30T20:53:45.310Z,15.90
2022-07-30T20:56:13.419Z,15.80
2022-07-30T20:58:41.674Z,15.70
2022-07-30T21:01:17.302Z,15.70
2022-07-30T21:03:47.792Z,15.60
2022-07-30T21:06:16.511Z,15.50
2022-07-30T21:08:43.543Z,15.50
2022-07-30T21:11:12.669Z,15.50
2022-07-30T21:13:41.411Z,15.40
2022-07-30T21:16:15.643Z,15.40
2022-07-30T21:18:48.189Z,15.30
2022-07-30T21:21:29.132Z,15.30
2022-07-30T21:24:05.641Z,15.30
2022-07-30T21:26:32.655Z,15.30
2022-07-30T21:29:01.128Z,15.10
2022-07-30T21:31:57.770Z,15.10
2022-07-30T21:34:15.406Z,15.20
2022-07-30T21:36:43.444Z,15.10
2022-07-30T21:41:57.631Z,15.10
2022-07-30T21:44:24.703Z,15.20
2022-07-30T21:46:52.456Z,15.10
2022-07-30T21:49:20.737Z,15.10
2022-07-30T21:51:47.795Z,15.10
2022-07-30T21:54:28.411Z,15.10
2022-07-30T21:56:56.552Z,15.10
2022-07-30T21:59:25.631Z,15.10
2022-07-30T22:01:56.397Z,15.10
2022-07-30T22:04:23.869Z,15.10
2022-07-30T22:06:51.473Z,15.00
2022-07-30T22:09:34.367Z,15.00
2022-07-30T22:12:09.675Z,15.00
2022-07-30T22:14:39.234Z,14.90
2022-07-30T22:17:06.276Z,14.90
2022-07-30T22:19:49.876Z,14.80
2022-07-30T22:22:26.532Z,14.70
2022-07-30T22:24:58.141Z,14.60
2022-07-30T22:27:28.048Z,14.80
2022-07-30T22:30:09.014Z,14.70
2022-07-30T22:32:36.527Z,14.70
2022-07-30T22:35:07.451Z,14.80
2022-07-30T22:37:34.422Z,14.90
2022-07-30T22:40:02.258Z,15.00
2022-07-30T22:42:29.200Z,14.90
2022-07-30T22:44:57.436Z,14.90
2022-07-30T22:47:50.826Z,14.90
2022-07-30T22:50:11.850Z,14.90
2022-07-30T22:52:40.082Z,14.80
2022-07-30T22:55:17.302Z,14.90
2022-07-30T22:57:50.034Z,14.90
2022-07-30T23:00:27.965Z,15.00
2022-07-30T23:02:56.795Z,15.10
2022-07-30T23:05:25.049Z,15.10
2022-07-30T23:07:52.342Z,15.10
2022-07-30T23:10:20.457Z,15.20
2022-07-30T23:12:33.131Z,15.10
2022-07-30T23:12:51.384Z,15.10
2022-07-30T23:15:19.942Z,15.10
2022-07-30T23:17:47.785Z,15.00
2022-07-30T23:20:20.634Z,15.00
2022-07-30T23:22:49.124Z,14.90
2022-07-30T23:25:16.129Z,14.90
2022-07-30T23:27:46.747Z,14.80
2022-07-30T23:30:14.149Z,14.80
2022-07-30T23:32:41.172Z,14.90
2022-07-30T23:35:11.146Z,14.90
2022-07-30T23:37:48.877Z,14.80
2022-07-30T23:40:19.698Z,14.80
2022-07-30T23:42:47.783Z,14.90
2022-07-30T23:45:14.871Z,14.90
2022-07-30T23:48:00.880Z,14.90
2022-07-30T23:50:29.708Z,14.90
2022-07-30T23:52:56.674Z,14.90
2022-07-30T23:55:23.791Z,14.90
2022-07-30T23:57:52.356Z,14.90
